Terminal Aerodrome Forecast
Issued by NWS

Home | Current Version | Previous Version | Text Only | Print | Product List | Glossary On
Versions: 1 2 3 4 5 6 7 8 9 10 11 12 13 14 15 16 17 18 19 20 21 22
000
FTUS44 KOUN 281720
TAFGAG
TAF
KGAG 281720Z 2818/2918 20015G22KT P6SM SCT250
     FM290100 17010KT P6SM SCT100 BKN250
     FM290300 20009KT P6SM SCT050 BKN100 BKN250 PROB30 2903/2909 3SM
      TSRA BKN050CB OVC100
     FM291000 33006KT P6SM BKN100 BKN250=

USA.gov is the U.S. government's official web portal to all federal, state and local government web resources and services.